createdAt,value
2017-11-24T04:43:22.254Z,3.37
2017-11-24T04:45:49.088Z,2.27
2017-11-24T04:48:16.896Z,4.20
2017-11-24T04:50:43.810Z,2.83
2017-11-24T04:53:10.695Z,2.57
2017-11-24T04:55:37.553Z,3.40
2017-11-24T04:58:04.437Z,2.63
2017-11-24T05:00:31.338Z,2.60
2017-11-24T05:02:58.167Z,3.00
2017-11-24T05:05:25.062Z,2.67
2017-11-24T05:07:51.911Z,2.60
2017-11-24T05:10:18.757Z,2.93
2017-11-24T05:12:45.680Z,2.67
2017-11-24T05:15:12.496Z,2.97
2017-11-24T05:17:39.345Z,2.40
2017-11-24T05:20:06.221Z,2.47
2017-11-24T05:22:33.078Z,3.10
2017-11-24T05:24:59.923Z,2.50
2017-11-24T05:27:26.790Z,2.20
2017-11-24T05:29:53.594Z,2.67
2017-11-24T05:32:20.440Z,2.90
2017-11-24T05:34:47.281Z,2.87
2017-11-24T05:37:14.079Z,3.17
2017-11-24T05:39:40.907Z,3.63
2017-11-24T05:42:07.745Z,3.07
2017-11-24T05:44:34.574Z,3.10
2017-11-24T05:47:01.453Z,3.50
2017-11-24T05:49:28.426Z,3.20
2017-11-24T05:51:55.246Z,4.17
2017-11-24T05:54:22.053Z,2.63
2017-11-24T05:56:48.904Z,3.00
2017-11-24T05:59:15.751Z,3.60
2017-11-24T06:01:42.544Z,3.40
2017-11-24T06:04:09.422Z,3.70
2017-11-24T06:06:36.277Z,5.60
2017-11-24T06:09:03.178Z,3.60
2017-11-24T06:11:30.084Z,3.87
2017-11-24T06:13:57.034Z,3.70
2017-11-24T06:16:23.954Z,3.50
2017-11-24T06:18:50.859Z,3.90
2017-11-24T06:21:17.741Z,3.73
2017-11-24T06:23:44.641Z,3.47
2017-11-24T06:26:11.485Z,4.47
2017-11-24T06:28:38.303Z,4.63
2017-11-24T06:31:05.093Z,3.80
2017-11-24T06:33:31.976Z,4.50
2017-11-24T06:35:58.835Z,5.60
2017-11-24T06:38:25.710Z,4.80
2017-11-24T06:40:52.541Z,4.73
2017-11-24T06:43:19.497Z,4.40
2017-11-24T06:45:46.324Z,4.97
2017-11-24T06:48:13.208Z,4.77
2017-11-24T06:50:40.012Z,4.83
2017-11-24T06:53:06.819Z,4.90
2017-11-24T06:55:33.700Z,4.80
2017-11-24T06:58:00.529Z,4.90
2017-11-24T07:00:27.288Z,4.70
2017-11-24T07:02:54.114Z,4.67
2017-11-24T07:05:20.931Z,3.90
2017-11-24T07:07:47.796Z,5.20
2017-11-24T07:10:14.828Z,4.27
2017-11-24T07:12:41.635Z,3.97
2017-11-24T07:15:08.538Z,4.77
2017-11-24T07:17:36.288Z,4.27
2017-11-24T07:20:03.437Z,4.63
2017-11-24T07:22:30.327Z,4.00
2017-11-24T07:24:57.279Z,3.37
2017-11-24T07:27:24.077Z,2.90
2017-11-24T07:29:50.896Z,3.10
2017-11-24T07:32:17.756Z,3.37
2017-11-24T07:34:44.598Z,4.50
2017-11-24T07:37:11.449Z,3.40
2017-11-24T07:39:38.344Z,5.10
2017-11-24T07:42:05.305Z,3.07
2017-11-24T07:44:32.109Z,4.87
2017-11-24T07:46:59.060Z,3.73
2017-11-24T07:49:25.956Z,4.37
2017-11-24T07:51:52.777Z,5.20
2017-11-24T07:54:19.649Z,5.10
2017-11-24T07:56:46.536Z,5.10
2017-11-24T07:59:13.378Z,4.70
2017-11-24T08:01:40.255Z,5.20
2017-11-24T08:04:07.070Z,4.33
2017-11-24T08:06:33.897Z,5.30
2017-11-24T08:09:00.855Z,4.47
2017-11-24T08:11:27.725Z,5.53
2017-11-24T08:13:54.588Z,4.60
2017-11-24T08:16:21.504Z,6.47
2017-11-24T08:18:48.318Z,4.77
2017-11-24T08:21:15.239Z,5.47
2017-11-24T08:23:42.107Z,5.43
2017-11-24T08:26:09.023Z,4.70
2017-11-24T08:28:35.858Z,5.20
2017-11-24T08:31:02.745Z,5.30
2017-11-24T08:33:29.573Z,4.37
2017-11-24T08:35:56.424Z,5.30
2017-11-24T08:38:23.328Z,4.87
2017-11-24T08:40:50.119Z,4.40
2017-11-24T08:43:16.950Z,4.20
2017-11-24T08:45:43.805Z,4.03
2017-11-24T08:48:16.294Z,4.20
2017-11-24T08:50:43.233Z,4.67
2017-11-24T08:53:10.060Z,4.30
2017-11-24T08:55:36.861Z,5.93
2017-11-24T08:58:03.751Z,4.40
2017-11-24T09:00:30.596Z,3.60
2017-11-24T09:02:57.530Z,3.80
2017-11-24T09:05:24.462Z,4.17
2017-11-24T09:07:51.383Z,4.40
2017-11-24T09:10:18.273Z,4.17
2017-11-24T09:12:45.117Z,4.13
2017-11-24T09:15:11.977Z,3.23
2017-11-24T09:17:38.867Z,4.70
2017-11-24T09:20:05.785Z,4.30
2017-11-24T09:22:32.564Z,4.37
2017-11-24T09:24:59.536Z,4.13
2017-11-24T09:27:26.455Z,6.80
2017-11-24T09:29:53.344Z,5.07
2017-11-24T09:32:20.177Z,5.10
2017-11-24T09:34:47.047Z,3.73
2017-11-24T09:37:13.954Z,3.70
2017-11-24T09:39:40.788Z,4.87
2017-11-24T09:42:07.673Z,3.97
2017-11-24T09:44:34.494Z,3.60
2017-11-24T09:47:01.302Z,4.20
2017-11-24T09:49:28.208Z,3.87
2017-11-24T09:51:55.068Z,3.50
2017-11-24T09:54:21.928Z,3.73
2017-11-24T09:56:48.878Z,3.70
2017-11-24T09:59:15.759Z,4.13
2017-11-24T10:01:42.612Z,3.03
2017-11-24T10:04:09.470Z,3.33
2017-11-24T10:06:36.283Z,4.17
2017-11-24T10:09:03.176Z,4.43
2017-11-24T10:11:30.035Z,4.07
2017-11-24T10:13:56.912Z,3.70
2017-11-24T10:16:23.709Z,4.00
2017-11-24T10:18:50.551Z,3.73
2017-11-24T10:21:23.197Z,4.43
2017-11-24T10:23:50.082Z,4.23
2017-11-24T10:26:16.928Z,3.70
2017-11-24T10:28:43.780Z,3.90
2017-11-24T10:31:10.625Z,4.10
2017-11-24T10:33:37.434Z,3.90
2017-11-24T10:36:04.236Z,2.47
2017-11-24T10:38:31.187Z,3.97
2017-11-24T10:40:58.000Z,4.43
2017-11-24T10:43:24.857Z,3.63
2017-11-24T10:45:51.748Z,2.97
2017-11-24T10:48:18.573Z,3.23
2017-11-24T10:50:45.351Z,3.43
2017-11-24T10:53:12.181Z,3.40
2017-11-24T10:55:38.953Z,3.73
2017-11-24T10:58:05.731Z,3.33
2017-11-24T11:00:32.548Z,3.80
2017-11-24T11:02:59.410Z,3.60
2017-11-24T11:05:26.172Z,4.30
2017-11-24T11:07:52.968Z,4.43
2017-11-24T11:10:19.775Z,3.73
2017-11-24T11:12:46.546Z,2.90
2017-11-24T11:15:13.398Z,5.37
2017-11-24T11:17:40.209Z,3.47
2017-11-24T11:20:06.999Z,3.60
2017-11-24T11:22:33.839Z,4.50
2017-11-24T11:25:00.667Z,3.60
2017-11-24T11:27:27.422Z,3.70
2017-11-24T11:29:54.240Z,4.63
2017-11-24T11:32:21.073Z,5.10
2017-11-24T11:34:47.964Z,3.20
2017-11-24T11:37:14.863Z,2.80
2017-11-24T11:39:41.703Z,4.50
2017-11-24T11:42:08.655Z,4.07
2017-11-24T11:44:35.475Z,3.50
2017-11-24T11:47:02.376Z,3.80
2017-11-24T11:49:29.259Z,4.53
2017-11-24T11:51:56.144Z,3.97
2017-11-24T11:54:23.031Z,3.40
2017-11-24T11:56:49.835Z,3.87
2017-11-24T11:59:17.553Z,3.67
2017-11-24T12:01:44.582Z,4.43
2017-11-24T12:04:11.373Z,3.60
2017-11-24T12:06:38.214Z,6.10
2017-11-24T12:09:05.043Z,5.30
2017-11-24T12:11:31.829Z,4.70
2017-11-24T12:13:58.655Z,5.57
2017-11-24T12:16:25.471Z,6.00
2017-11-24T12:18:52.346Z,5.97
2017-11-24T12:21:19.193Z,5.10
2017-11-24T12:23:46.027Z,6.20
2017-11-24T12:26:12.881Z,6.27
2017-11-24T12:28:39.745Z,5.07
2017-11-24T12:31:06.590Z,6.27
2017-11-24T12:33:33.416Z,5.57
2017-11-24T12:36:00.242Z,4.30
2017-11-24T12:38:27.086Z,3.20
2017-11-24T12:40:53.944Z,3.20
2017-11-24T12:43:20.738Z,3.67
2017-11-24T12:45:47.506Z,2.50
2017-11-24T12:48:14.282Z,3.00
2017-11-24T12:50:41.097Z,3.30
2017-11-24T12:53:07.929Z,3.17
2017-11-24T12:55:34.707Z,3.03
2017-11-24T12:58:01.488Z,2.67
2017-11-24T13:00:28.303Z,3.20
2017-11-24T13:02:55.069Z,2.40
2017-11-24T13:05:21.913Z,2.00
2017-11-24T13:07:48.755Z,2.10
2017-11-24T13:10:15.575Z,2.47
2017-11-24T13:12:42.409Z,2.60
2017-11-24T13:15:09.224Z,1.80
2017-11-24T13:17:36.064Z,1.80
2017-11-24T13:20:02.944Z,1.63
2017-11-24T13:22:29.798Z,1.57
2017-11-24T13:24:56.597Z,1.50
2017-11-24T13:27:23.430Z,2.30
2017-11-24T13:29:50.248Z,1.77
2017-11-24T13:32:17.081Z,3.07
2017-11-24T13:34:43.967Z,1.93
2017-11-24T13:37:10.846Z,1.37
2017-11-24T13:39:37.751Z,2.43
2017-11-24T13:42:04.628Z,1.50
2017-11-24T13:44:31.568Z,2.20
2017-11-24T13:46:59.292Z,1.40
2017-11-24T13:49:26.157Z,1.30
2017-11-24T13:51:53.018Z,1.40
2017-11-24T13:54:19.815Z,2.10
2017-11-24T13:56:46.701Z,1.73
2017-11-24T13:59:13.558Z,3.40
2017-11-24T14:01:40.671Z,1.87
2017-11-24T14:04:07.532Z,2.60
2017-11-24T14:06:34.385Z,1.80
2017-11-24T14:09:01.304Z,2.07
2017-11-24T14:11:28.168Z,2.60
2017-11-24T14:13:54.969Z,2.30
2017-11-24T14:16:21.912Z,2.37
2017-11-24T14:18:48.756Z,2.47
2017-11-24T14:21:15.602Z,2.70
2017-11-24T14:23:42.436Z,2.00
2017-11-24T14:26:09.307Z,1.93
2017-11-24T14:28:36.227Z,2.07
2017-11-24T14:31:03.109Z,2.07
2017-11-24T14:33:29.981Z,2.53
2017-11-24T14:35:56.858Z,2.40
2017-11-24T14:38:23.750Z,3.17
2017-11-24T14:40:50.682Z,2.80
2017-11-24T14:43:17.528Z,2.20
2017-11-24T14:45:44.372Z,2.10
2017-11-24T14:48:11.933Z,2.33
2017-11-24T14:50:38.851Z,2.37
2017-11-24T14:53:05.842Z,2.60
2017-11-24T14:55:32.730Z,2.10
2017-11-24T14:57:59.572Z,2.47
2017-11-24T15:00:26.412Z,2.70
2017-11-24T15:02:53.290Z,2.50
2017-11-24T15:05:20.132Z,2.60
2017-11-24T15:07:46.988Z,1.90
2017-11-24T15:10:13.887Z,1.90
2017-11-24T15:12:40.769Z,1.87
2017-11-24T15:15:07.665Z,1.80
2017-11-24T15:17:34.551Z,1.63
2017-11-24T15:20:01.415Z,2.33
2017-11-24T15:22:28.300Z,2.00
2017-11-24T15:24:55.203Z,1.70
2017-11-24T15:27:22.039Z,2.27
2017-11-24T15:29:48.873Z,1.70
2017-11-24T15:32:15.827Z,2.20
2017-11-24T15:34:42.653Z,3.07
2017-11-24T15:37:09.490Z,2.27
2017-11-24T15:39:36.404Z,2.27
2017-11-24T15:42:03.301Z,1.77
2017-11-24T15:44:30.329Z,1.70
2017-11-24T15:46:57.242Z,2.77
2017-11-24T15:49:24.031Z,3.10
2017-11-24T15:51:51.023Z,3.90
2017-11-24T15:54:17.907Z,4.40
2017-11-24T15:56:44.760Z,3.67
2017-11-24T15:59:11.660Z,2.90
2017-11-24T16:01:38.497Z,2.33
2017-11-24T16:04:05.343Z,2.37
2017-11-24T16:06:32.280Z,2.27
2017-11-24T16:08:59.120Z,2.40
2017-11-24T16:11:25.921Z,1.67
2017-11-24T16:13:52.814Z,2.00
2017-11-24T16:16:19.682Z,2.20
2017-11-24T16:18:46.538Z,2.23
2017-11-24T16:21:13.405Z,2.30
2017-11-24T16:23:40.282Z,2.10
2017-11-24T16:26:07.133Z,2.67
2017-11-24T16:28:33.974Z,2.33
2017-11-24T16:31:00.871Z,2.90
2017-11-24T16:33:27.706Z,2.10
2017-11-24T16:35:54.548Z,2.30
2017-11-24T16:38:21.394Z,2.47
2017-11-24T16:40:48.296Z,2.57
2017-11-24T16:43:15.131Z,3.00
2017-11-24T16:45:41.996Z,2.97
2017-11-24T16:48:08.822Z,2.63
2017-11-24T16:50:35.769Z,2.93
2017-11-24T16:53:02.653Z,3.53
2017-11-24T16:55:29.561Z,3.20
2017-11-24T16:57:56.371Z,2.83
2017-11-24T17:00:23.346Z,3.63
2017-11-24T17:02:50.135Z,3.70
2017-11-24T17:05:16.969Z,4.20
2017-11-24T17:07:43.869Z,4.03
2017-11-24T17:10:10.686Z,4.67
2017-11-24T17:12:37.527Z,4.00
2017-11-24T17:15:04.371Z,3.17
2017-11-24T17:17:31.174Z,3.60
2017-11-24T17:19:58.005Z,4.17
2017-11-24T17:22:24.876Z,4.23
2017-11-24T17:24:51.735Z,3.50
2017-11-24T17:27:18.548Z,3.57
2017-11-24T17:29:45.456Z,3.63
2017-11-24T17:32:12.287Z,2.80
2017-11-24T17:34:39.075Z,1.73
2017-11-24T17:37:05.982Z,2.20
2017-11-24T17:39:32.846Z,2.07
2017-11-24T17:41:59.646Z,1.80
2017-11-24T17:44:26.499Z,2.57
2017-11-24T17:46:53.337Z,3.97
2017-11-24T17:49:20.314Z,2.37
2017-11-24T17:51:47.218Z,2.73
2017-11-24T17:54:14.069Z,3.17
2017-11-24T17:56:40.862Z,3.27
2017-11-24T17:59:07.705Z,3.17
2017-11-24T18:01:34.602Z,2.40
2017-11-24T18:04:01.545Z,3.07
2017-11-24T18:06:28.434Z,2.70
2017-11-24T18:08:55.271Z,2.43
2017-11-24T18:11:22.107Z,4.17
2017-11-24T18:13:48.935Z,4.00
2017-11-24T18:16:15.807Z,4.93
2017-11-24T18:18:42.692Z,4.83
2017-11-24T18:21:09.612Z,7.43
2017-11-24T18:23:36.621Z,5.30
2017-11-24T18:26:03.484Z,6.40
2017-11-24T18:28:30.387Z,6.87
2017-11-24T18:30:57.326Z,7.50
2017-11-24T18:33:24.173Z,5.03
2017-11-24T18:35:51.095Z,5.60
2017-11-24T18:38:17.984Z,6.50
2017-11-24T18:40:44.824Z,6.33
2017-11-24T18:43:11.716Z,8.60
2017-11-24T18:45:38.614Z,8.70
2017-11-24T18:48:05.521Z,8.90
2017-11-24T18:50:32.417Z,6.47
2017-11-24T18:52:59.247Z,7.30
2017-11-24T18:55:26.091Z,7.13
2017-11-24T18:57:52.932Z,6.97
2017-11-24T19:00:20.262Z,6.03
2017-11-24T19:02:47.073Z,6.90
2017-11-24T19:05:13.971Z,6.30
2017-11-24T19:07:40.769Z,5.40
2017-11-24T19:10:07.644Z,5.57
2017-11-24T19:12:34.558Z,5.20
2017-11-24T19:15:01.427Z,5.57
2017-11-24T19:17:28.236Z,5.00
2017-11-24T19:19:55.109Z,5.20
2017-11-24T19:22:21.914Z,4.33
2017-11-24T19:24:48.762Z,5.13
2017-11-24T19:27:15.745Z,4.23
2017-11-24T19:29:42.562Z,5.03
2017-11-24T19:32:09.402Z,6.83
2017-11-24T19:34:36.234Z,5.83
2017-11-24T19:37:03.077Z,5.37
2017-11-24T19:39:29.960Z,5.60
2017-11-24T19:41:56.834Z,6.20
2017-11-24T19:44:23.664Z,7.10
2017-11-24T19:46:50.458Z,6.40
2017-11-24T19:49:17.329Z,5.60
2017-11-24T19:51:44.109Z,6.40
2017-11-24T19:54:10.906Z,6.30
2017-11-24T19:56:37.812Z,6.60
2017-11-24T19:59:04.630Z,4.57
2017-11-24T20:01:31.476Z,5.60
2017-11-24T20:03:59.306Z,6.03
2017-11-24T20:06:26.186Z,5.70
2017-11-24T20:08:52.985Z,6.50
2017-11-24T20:11:19.844Z,7.00
2017-11-24T20:13:46.650Z,7.27
2017-11-24T20:16:13.453Z,5.20
2017-11-24T20:18:40.479Z,8.33
2017-11-24T20:21:07.335Z,6.97
2017-11-24T20:23:34.177Z,8.30
2017-11-24T20:26:01.065Z,6.57
2017-11-24T20:28:27.904Z,8.83
2017-11-24T20:30:54.743Z,8.77
2017-11-24T20:33:21.648Z,7.47
2017-11-24T20:35:48.468Z,7.50
2017-11-24T20:38:15.286Z,8.70
2017-11-24T20:40:48.059Z,8.87
2017-11-24T20:43:14.885Z,8.37
2017-11-24T20:45:41.719Z,8.67
2017-11-24T20:48:09.202Z,7.93
2017-11-24T20:50:35.974Z,7.00
2017-11-24T20:53:02.851Z,7.57
2017-11-24T20:55:29.753Z,8.40
2017-11-24T20:57:56.580Z,9.40
2017-11-24T21:00:23.440Z,7.17
2017-11-24T21:02:50.273Z,8.87
2017-11-24T21:05:17.134Z,6.53
2017-11-24T21:07:44.019Z,6.80
2017-11-24T21:10:10.908Z,8.77
2017-11-24T21:12:37.754Z,7.70
2017-11-24T21:15:04.600Z,7.97
2017-11-24T21:17:31.461Z,9.27
2017-11-24T21:19:58.280Z,9.93
2017-11-24T21:22:25.226Z,8.13
2017-11-24T21:24:52.108Z,8.40
2017-11-24T21:27:18.962Z,6.67
2017-11-24T21:29:45.757Z,7.53
2017-11-24T21:32:12.656Z,8.73
2017-11-24T21:34:39.463Z,8.60
2017-11-24T21:37:06.305Z,10.10
2017-11-24T21:39:33.144Z,8.10
2017-11-24T21:42:00.110Z,7.73
2017-11-24T21:44:26.943Z,8.43
2017-11-24T21:46:53.890Z,9.67
2017-11-24T21:49:20.716Z,8.83
2017-11-24T21:51:47.538Z,10.90
2017-11-24T21:54:14.443Z,10.93
2017-11-24T21:56:41.305Z,10.20
2017-11-24T21:59:08.148Z,8.57
2017-11-24T22:01:35.121Z,9.40
2017-11-24T22:04:01.951Z,9.20
2017-11-24T22:06:28.793Z,7.83
2017-11-24T22:08:55.641Z,9.57
2017-11-24T22:11:22.484Z,10.27
2017-11-24T22:13:49.318Z,8.30
2017-11-24T22:16:16.289Z,8.70
2017-11-24T22:18:43.115Z,9.30
2017-11-24T22:21:09.957Z,11.83
2017-11-24T22:23:36.860Z,11.77
2017-11-24T22:26:03.701Z,9.20
2017-11-24T22:28:30.623Z,9.87
2017-11-24T22:30:57.498Z,9.03
2017-11-24T22:33:24.331Z,10.90
2017-11-24T22:35:51.150Z,9.10
2017-11-24T22:38:18.079Z,9.10
2017-11-24T22:40:44.908Z,9.50
2017-11-24T22:43:11.847Z,9.47
2017-11-24T22:45:38.795Z,8.57
2017-11-24T22:48:06.388Z,9.90
2017-11-24T22:50:33.247Z,9.80
2017-11-24T22:53:00.072Z,8.00
2017-11-24T22:55:26.917Z,8.70
2017-11-24T22:57:53.812Z,8.87
2017-11-24T23:00:20.671Z,10.60
2017-11-24T23:02:47.513Z,9.40
2017-11-24T23:05:14.375Z,9.77
2017-11-24T23:07:41.303Z,8.50
